Time;durP1;ratioP1;P1;durP2;ratioP2;P2;SDS_P1;SDS_P2;PMS_P1;PMS_P2;Temp;Humidity;BMP_temperature;BMP_pressure;BME280_temperature;BME280_humidity;BME280_pressure;Samples;Min_cycle;Max_cycle;Signal;HPM_P1;HPM_P2
2023/05/28 00:00:51;;;;;;;9.52;4.78;;;;;;;;;;4980368;28;20047;-77
2023/05/28 00:03:20;;;;;;;9.70;5.05;;;;;;;;;;4983326;28;20111;-80
2023/05/28 00:05:49;;;;;;;9.05;4.43;;;;;;;;;;4989931;28;20046;-82
2023/05/28 00:08:16;;;;;;;10.02;5.00;;;;;;;;;;5002486;22;20081;-59
2023/05/28 00:10:43;;;;;;;8.98;5.20;;;;;;;;;;4985575;28;20058;-56
2023/05/28 00:13:10;;;;;;;10.18;5.15;;;;;;;;;;4973090;28;20408;-56
2023/05/28 00:15:37;;;;;;;8.82;4.40;;;;;;;;;;4953645;28;20044;-59
2023/05/28 00:18:05;;;;;;;7.53;4.25;;;;;;;;;;4953454;29;20059;-58
2023/05/28 00:20:33;;;;;;;9.90;4.57;;;;;;;;;;4947713;28;20054;-57
2023/05/28 00:23:00;;;;;;;10.93;4.28;;;;;;;;;;4947919;29;20059;-58
2023/05/28 00:25:27;;;;;;;7.13;4.60;;;;;;;;;;4948164;29;20065;-55
2023/05/28 00:27:53;;;;;;;10.13;4.97;;;;;;;;;;4954789;29;20055;-59
2023/05/28 00:30:23;;;;;;;8.35;4.07;;;;;;;;;;4954873;28;20102;-57
2023/05/28 00:32:50;;;;;;;10.43;5.03;;;;;;;;;;4954884;29;20468;-57
2023/05/28 00:35:17;;;;;;;7.85;4.43;;;;;;;;;;4954797;29;20118;-59
2023/05/28 00:37:45;;;;;;;10.68;5.22;;;;;;;;;;4954506;29;20101;-59
2023/05/28 00:40:15;;;;;;;7.13;4.38;;;;;;;;;;4954670;29;20063;-58
2023/05/28 00:42:42;;;;;;;8.07;4.85;;;;;;;;;;4954473;29;20056;-59
2023/05/28 00:45:11;;;;;;;10.70;4.85;;;;;;;;;;4954955;29;20047;-59
2023/05/28 00:47:38;;;;;;;9.82;5.05;;;;;;;;;;4954353;29;20102;-57
2023/05/28 00:50:07;;;;;;;8.80;4.05;;;;;;;;;;4954309;29;20559;-59
2023/05/28 00:52:34;;;;;;;8.50;4.33;;;;;;;;;;4954314;29;20051;-56
2023/05/28 00:55:06;;;;;;;8.82;4.30;;;;;;;;;;4954481;29;20070;-59
2023/05/28 00:57:36;;;;;;;8.60;4.25;;;;;;;;;;4954364;29;20096;-58
2023/05/28 01:00:05;;;;;;;8.35;4.45;;;;;;;;;;4954048;29;20142;-58
2023/05/28 01:02:32;;;;;;;9.13;3.87;;;;;;;;;;4953835;28;20059;-57
2023/05/28 01:04:59;;;;;;;9.43;4.65;;;;;;;;;;4954010;29;20473;-58
2023/05/28 01:07:26;;;;;;;10.32;4.65;;;;;;;;;;4954185;29;20142;-58
2023/05/28 01:09:53;;;;;;;6.78;4.20;;;;;;;;;;4953752;29;20059;-55
2023/05/28 01:12:23;;;;;;;8.45;4.72;;;;;;;;;;4954146;28;20445;-54
2023/05/28 01:14:50;;;;;;;10.52;5.13;;;;;;;;;;4954272;29;20139;-57
2023/05/28 01:17:17;;;;;;;8.73;4.68;;;;;;;;;;4953948;29;20055;-58
2023/05/28 01:19:47;;;;;;;9.35;4.47;;;;;;;;;;4953710;29;20058;-60
2023/05/28 01:22:20;;;;;;;8.98;4.75;;;;;;;;;;4954163;29;20106;-58
2023/05/28 01:24:51;;;;;;;10.05;4.53;;;;;;;;;;4935016;29;20149;-57
2023/05/28 01:27:19;;;;;;;10.45;4.32;;;;;;;;;;4934482;29;20055;-57
2023/05/28 01:29:46;;;;;;;8.23;4.32;;;;;;;;;;4946802;29;20047;-58
2023/05/28 01:32:13;;;;;;;9.10;4.65;;;;;;;;;;4953721;28;20078;-58
2023/05/28 01:34:39;;;;;;;8.10;4.43;;;;;;;;;;4953857;29;20481;-54
2023/05/28 01:37:09;;;;;;;8.73;4.72;;;;;;;;;;4953821;29;20051;-55
2023/05/28 01:39:43;;;;;;;8.37;4.57;;;;;;;;;;4953725;29;20055;-52
2023/05/28 01:42:12;;;;;;;6.78;3.97;;;;;;;;;;4953458;28;20094;-52
2023/05/28 01:44:40;;;;;;;12.75;5.07;;;;;;;;;;4953614;29;20472;-52
2023/05/28 01:47:07;;;;;;;8.55;4.05;;;;;;;;;;4953493;29;20106;-49
2023/05/28 01:49:34;;;;;;;10.07;4.72;;;;;;;;;;4952851;29;20055;-50
2023/05/28 01:52:03;;;;;;;7.88;4.90;;;;;;;;;;4953277;29;20059;-48
2023/05/28 01:54:30;;;;;;;10.05;4.53;;;;;;;;;;4953550;29;20047;-50
2023/05/28 01:56:57;;;;;;;10.30;5.03;;;;;;;;;;4953538;29;20139;-50
2023/05/28 01:59:25;;;;;;;9.80;4.20;;;;;;;;;;4952940;29;20464;-51
2023/05/28 02:01:52;;;;;;;6.65;3.97;;;;;;;;;;4953357;28;20499;-49
2023/05/28 02:04:19;;;;;;;7.72;4.50;;;;;;;;;;4953131;29;20087;-52
2023/05/28 02:06:47;;;;;;;7.70;4.28;;;;;;;;;;4953385;29;20059;-51
2023/05/28 02:09:13;;;;;;;9.55;5.00;;;;;;;;;;4952903;29;20118;-52
2023/05/28 02:11:40;;;;;;;8.07;4.25;;;;;;;;;;4952946;28;20043;-54
2023/05/28 02:14:08;;;;;;;9.90;5.20;;;;;;;;;;4955462;28;20083;-53
2023/05/28 02:16:36;;;;;;;10.57;4.57;;;;;;;;;;4957632;29;20131;-48
2023/05/28 02:19:03;;;;;;;10.30;4.40;;;;;;;;;;4956473;29;20047;-49
2023/05/28 02:21:30;;;;;;;9.75;4.75;;;;;;;;;;4956789;28;20058;-53
2023/05/28 02:23:57;;;;;;;13.48;4.70;;;;;;;;;;4937949;29;20139;-53
2023/05/28 02:26:25;;;;;;;8.45;4.38;;;;;;;;;;4937972;29;20524;-53
2023/05/28 02:28:51;;;;;;;8.23;5.32;;;;;;;;;;4942821;29;20047;-56
2023/05/28 02:31:19;;;;;;;8.18;4.50;;;;;;;;;;4956715;28;20055;-52
2023/05/28 02:33:47;;;;;;;7.55;4.22;;;;;;;;;;4956648;29;20062;-50
2023/05/28 02:36:14;;;;;;;11.02;4.93;;;;;;;;;;4956659;29;20047;-49
2023/05/28 02:38:41;;;;;;;9.10;4.47;;;;;;;;;;4956554;29;20055;-50
2023/05/28 02:41:08;;;;;;;8.30;4.20;;;;;;;;;;4956644;29;20480;-57
2023/05/28 02:43:35;;;;;;;8.85;4.63;;;;;;;;;;4956513;29;20551;-53
2023/05/28 02:46:02;;;;;;;8.57;4.00;;;;;;;;;;4956584;29;20074;-55
2023/05/28 02:48:29;;;;;;;8.88;4.70;;;;;;;;;;4955863;29;20516;-48
2023/05/28 02:50:57;;;;;;;7.53;4.32;;;;;;;;;;4956632;29;20051;-49
2023/05/28 02:53:24;;;;;;;7.80;4.50;;;;;;;;;;4956161;29;20102;-53
2023/05/28 02:55:51;;;;;;;10.38;4.82;;;;;;;;;;4956560;29;20055;-48
2023/05/28 02:58:18;;;;;;;8.27;4.10;;;;;;;;;;4956322;29;20059;-51
2023/05/28 03:00:45;;;;;;;11.35;4.57;;;;;;;;;;4955994;28;20062;-52
2023/05/28 03:03:12;;;;;;;9.50;4.45;;;;;;;;;;4955979;29;20460;-48
2023/05/28 03:05:38;;;;;;;8.88;4.50;;;;;;;;;;4956300;29;20106;-49
2023/05/28 03:08:07;;;;;;;9.18;4.82;;;;;;;;;;4956060;29;20051;-49
2023/05/28 03:10:34;;;;;;;7.57;4.45;;;;;;;;;;4955967;29;20051;-48
2023/05/28 03:13:01;;;;;;;8.77;5.10;;;;;;;;;;4956362;29;20441;-48
2023/05/28 03:15:27;;;;;;;9.32;4.43;;;;;;;;;;4955633;29;20051;-52
2023/05/28 03:17:55;;;;;;;10.32;4.38;;;;;;;;;;4955757;29;20054;-51
2023/05/28 03:20:23;;;;;;;10.27;4.43;;;;;;;;;;4955836;28;20460;-49
2023/05/28 03:22:55;;;;;;;9.38;4.80;;;;;;;;;;4956019;29;20051;-53
2023/05/28 03:25:24;;;;;;;9.52;4.20;;;;;;;;;;4955340;28;20074;-49
2023/05/28 03:27:51;;;;;;;9.85;4.85;;;;;;;;;;4955923;29;20055;-49
2023/05/28 03:30:18;;;;;;;8.02;4.57;;;;;;;;;;4955284;28;20047;-52
2023/05/28 03:32:45;;;;;;;9.38;4.70;;;;;;;;;;4955792;29;20094;-54
2023/05/28 03:35:12;;;;;;;10.07;4.30;;;;;;;;;;4955487;29;20051;-49
2023/05/28 03:37:38;;;;;;;11.60;4.75;;;;;;;;;;4955702;29;20472;-49
2023/05/28 03:40:08;;;;;;;10.23;5.30;;;;;;;;;;4955521;28;20059;-50
2023/05/28 03:42:36;;;;;;;9.40;4.40;;;;;;;;;;4955938;29;20471;-49
2023/05/28 03:45:04;;;;;;;9.30;4.43;;;;;;;;;;4955617;29;20115;-49
2023/05/28 03:47:32;;;;;;;9.77;4.32;;;;;;;;;;4955467;29;20047;-50
2023/05/28 03:50:00;;;;;;;9.70;4.60;;;;;;;;;;4955287;28;20078;-54
2023/05/28 03:52:28;;;;;;;10.40;4.22;;;;;;;;;;4955635;29;20604;-53
2023/05/28 03:54:55;;;;;;;7.97;4.30;;;;;;;;;;4955501;29;20054;-51
2023/05/28 03:57:22;;;;;;;10.32;4.53;;;;;;;;;;4955356;29;20489;-49
2023/05/28 03:59:50;;;;;;;10.50;4.78;;;;;;;;;;4955021;29;20105;-49
2023/05/28 04:02:17;;;;;;;9.85;4.70;;;;;;;;;;4952299;29;20114;-53
2023/05/28 04:04:45;;;;;;;9.82;4.78;;;;;;;;;;4936346;29;20050;-49
2023/05/28 04:07:11;;;;;;;8.60;4.30;;;;;;;;;;4955176;29;20055;-53
2023/05/28 04:09:38;;;;;;;12.73;5.68;;;;;;;;;;4954710;29;20055;-49
2023/05/28 04:12:06;;;;;;;10.27;4.55;;;;;;;;;;4955207;29;20048;-51
2023/05/28 04:14:33;;;;;;;9.85;4.40;;;;;;;;;;4955107;29;20132;-49
2023/05/28 04:17:01;;;;;;;10.63;4.50;;;;;;;;;;4954917;29;20047;-51
2023/05/28 04:19:28;;;;;;;7.70;4.25;;;;;;;;;;4954747;29;20051;-50
2023/05/28 04:21:55;;;;;;;11.18;4.78;;;;;;;;;;4955237;29;20508;-52
2023/05/28 04:24:22;;;;;;;8.90;4.05;;;;;;;;;;4954952;29;20062;-54
2023/05/28 04:26:48;;;;;;;10.48;5.25;;;;;;;;;;4954568;29;20055;-49
2023/05/28 04:29:16;;;;;;;7.68;4.50;;;;;;;;;;4954428;29;20051;-52
2023/05/28 04:31:43;;;;;;;10.55;5.10;;;;;;;;;;4954811;29;20061;-48
2023/05/28 04:34:14;;;;;;;8.40;4.10;;;;;;;;;;4954778;29;20086;-54
2023/05/28 04:36:42;;;;;;;9.52;5.47;;;;;;;;;;4953598;28;20043;-47
2023/05/28 04:39:10;;;;;;;8.15;4.13;;;;;;;;;;4954805;29;20532;-48
2023/05/28 04:41:37;;;;;;;10.13;5.15;;;;;;;;;;4954358;28;20129;-51
2023/05/28 04:44:03;;;;;;;10.35;4.95;;;;;;;;;;4954534;29;20059;-49
2023/05/28 04:46:30;;;;;;;10.45;4.82;;;;;;;;;;4954286;29;20048;-54
2023/05/28 04:48:57;;;;;;;8.70;4.15;;;;;;;;;;4946668;29;20094;-50
2023/05/28 04:51:26;;;;;;;10.75;4.65;;;;;;;;;;4954365;28;20047;-49
2023/05/28 04:53:53;;;;;;;9.07;5.20;;;;;;;;;;4954324;29;20051;-54
2023/05/28 04:56:20;;;;;;;8.82;4.68;;;;;;;;;;4954155;29;20393;-51
2023/05/28 04:58:47;;;;;;;10.98;5.03;;;;;;;;;;4953300;29;20047;-50
2023/05/28 05:01:15;;;;;;;7.32;4.25;;;;;;;;;;4954260;29;20070;-49
2023/05/28 05:03:42;;;;;;;9.52;4.82;;;;;;;;;;4940433;29;20143;-49
2023/05/28 05:06:08;;;;;;;10.70;4.95;;;;;;;;;;4951584;28;20043;-52
2023/05/28 05:08:37;;;;;;;9.38;4.43;;;;;;;;;;4953345;29;20047;-53
2023/05/28 05:11:06;;;;;;;10.43;4.55;;;;;;;;;;4954127;28;20110;-48
2023/05/28 05:13:33;;;;;;;11.40;4.72;;;;;;;;;;4954253;29;20513;-49
2023/05/28 05:16:00;;;;;;;7.82;4.65;;;;;;;;;;4954310;29;20110;-51
2023/05/28 05:18:27;;;;;;;7.90;4.00;;;;;;;;;;4953739;29;20085;-50
2023/05/28 05:20:55;;;;;;;8.60;3.90;;;;;;;;;;4953835;28;20055;-48
2023/05/28 05:23:22;;;;;;;11.05;5.28;;;;;;;;;;4954115;29;20074;-55
2023/05/28 05:25:50;;;;;;;10.75;4.10;;;;;;;;;;4954023;29;20047;-51
2023/05/28 05:28:17;;;;;;;9.02;4.40;;;;;;;;;;4953597;29;20050;-51
2023/05/28 05:30:43;;;;;;;8.55;4.18;;;;;;;;;;4953442;28;20086;-48
2023/05/28 05:33:10;;;;;;;11.70;5.55;;;;;;;;;;4954169;29;20390;-53
2023/05/28 05:35:37;;;;;;;9.25;4.00;;;;;;;;;;4953647;29;20544;-49
2023/05/28 05:38:05;;;;;;;10.55;4.70;;;;;;;;;;4953813;29;20390;-49
2023/05/28 05:40:32;;;;;;;9.25;4.47;;;;;;;;;;4953725;28;20094;-50
2023/05/28 05:43:00;;;;;;;10.40;4.60;;;;;;;;;;4953655;29;20063;-53
2023/05/28 05:45:30;;;;;;;9.38;5.00;;;;;;;;;;4954232;29;20053;-53
2023/05/28 05:47:57;;;;;;;11.07;5.85;;;;;;;;;;4953962;29;20055;-53
2023/05/28 05:50:24;;;;;;;10.00;5.03;;;;;;;;;;4953244;28;20047;-50
2023/05/28 05:52:51;;;;;;;11.40;5.63;;;;;;;;;;4953770;29;20051;-53
2023/05/28 05:55:18;;;;;;;9.65;4.25;;;;;;;;;;4953863;29;20047;-48
2023/05/28 05:57:45;;;;;;;9.85;4.40;;;;;;;;;;4953549;29;20047;-52
2023/05/28 06:00:14;;;;;;;9.20;4.18;;;;;;;;;;4953067;28;20074;-48
2023/05/28 06:02:41;;;;;;;9.13;4.60;;;;;;;;;;4953918;29;20051;-53
2023/05/28 06:05:09;;;;;;;10.93;4.63;;;;;;;;;;4953653;29;20473;-51
2023/05/28 06:07:35;;;;;;;9.48;4.32;;;;;;;;;;4953667;29;20119;-52
2023/05/28 06:10:02;;;;;;;8.82;4.13;;;;;;;;;;4952725;29;20090;-56
2023/05/28 06:12:29;;;;;;;9.40;4.10;;;;;;;;;;4953675;29;20060;-51
2023/05/28 06:14:56;;;;;;;11.52;4.28;;;;;;;;;;4953648;29;20047;-51
2023/05/28 06:17:24;;;;;;;9.98;4.40;;;;;;;;;;4953482;29;20052;-52
2023/05/28 06:19:51;;;;;;;10.10;4.95;;;;;;;;;;4952746;29;20110;-52
2023/05/28 06:22:18;;;;;;;10.02;4.18;;;;;;;;;;4953377;28;20055;-54
2023/05/28 06:24:45;;;;;;;9.15;4.07;;;;;;;;;;4953366;29;20051;-52
2023/05/28 06:27:12;;;;;;;8.10;4.13;;;;;;;;;;4953282;29;20051;-55
2023/05/28 06:29:40;;;;;;;9.98;4.50;;;;;;;;;;4952573;29;20047;-55
2023/05/28 06:32:08;;;;;;;9.63;5.15;;;;;;;;;;4953108;29;20116;-54
2023/05/28 06:34:36;;;;;;;11.63;4.30;;;;;;;;;;4953469;29;20134;-54
2023/05/28 06:37:03;;;;;;;9.32;4.38;;;;;;;;;;4953154;29;20130;-52
2023/05/28 06:39:30;;;;;;;9.90;4.93;;;;;;;;;;4953132;29;20059;-53
2023/05/28 06:41:56;;;;;;;9.10;3.75;;;;;;;;;;4952759;29;20043;-50
2023/05/28 06:44:23;;;;;;;8.50;4.57;;;;;;;;;;4953382;29;20114;-52
2023/05/28 06:46:50;;;;;;;9.73;4.85;;;;;;;;;;4953116;29;20047;-52
2023/05/28 06:49:17;;;;;;;8.93;4.13;;;;;;;;;;4952871;29;20051;-53
2023/05/28 06:51:45;;;;;;;9.23;4.53;;;;;;;;;;4953206;28;20103;-54
2023/05/28 06:54:12;;;;;;;11.43;5.40;;;;;;;;;;4953255;29;20481;-54
2023/05/28 06:56:39;;;;;;;9.98;5.25;;;;;;;;;;4953221;29;20149;-54
2023/05/28 06:59:06;;;;;;;9.90;4.47;;;;;;;;;;4952504;28;20129;-51
2023/05/28 07:01:32;;;;;;;10.00;4.95;;;;;;;;;;4956117;29;20485;-53
2023/05/28 07:03:59;;;;;;;9.35;4.18;;;;;;;;;;4956375;29;20052;-53
2023/05/28 07:06:26;;;;;;;11.50;5.05;;;;;;;;;;4956729;29;20426;-50
2023/05/28 07:08:54;;;;;;;10.68;4.60;;;;;;;;;;4956092;29;20132;-50
2023/05/28 07:11:21;;;;;;;9.70;4.38;;;;;;;;;;4955977;28;20059;-52
2023/05/28 07:13:48;;;;;;;11.32;4.75;;;;;;;;;;4956443;29;20058;-54
2023/05/28 07:16:15;;;;;;;9.25;4.60;;;;;;;;;;4956151;29;20065;-54
2023/05/28 07:18:42;;;;;;;11.85;4.85;;;;;;;;;;4956529;29;20524;-55
2023/05/28 07:21:09;;;;;;;9.15;4.72;;;;;;;;;;4956236;28;20102;-56
2023/05/28 07:23:35;;;;;;;11.57;4.82;;;;;;;;;;4955512;29;20047;-56
2023/05/28 07:26:04;;;;;;;9.75;4.75;;;;;;;;;;4956124;29;20113;-54
2023/05/28 07:28:31;;;;;;;10.73;4.75;;;;;;;;;;4955402;29;20540;-53
2023/05/28 07:30:58;;;;;;;10.38;4.72;;;;;;;;;;4955796;29;20047;-50
2023/05/28 07:33:25;;;;;;;10.27;4.75;;;;;;;;;;4956336;28;20507;-52
2023/05/28 07:35:52;;;;;;;8.48;4.38;;;;;;;;;;4963856;28;20463;-54
2023/05/28 07:38:18;;;;;;;10.30;4.70;;;;;;;;;;4974796;28;20058;-53
2023/05/28 07:40:45;;;;;;;7.65;4.15;;;;;;;;;;4959825;28;20054;-54
2023/05/28 07:43:13;;;;;;;8.77;3.83;;;;;;;;;;4955981;28;20051;-51
2023/05/28 07:45:40;;;;;;;9.13;4.57;;;;;;;;;;4955920;29;20054;-53
2023/05/28 07:48:07;;;;;;;8.45;4.63;;;;;;;;;;4955640;29;20136;-54
2023/05/28 07:50:34;;;;;;;7.93;4.28;;;;;;;;;;4955285;29;20043;-55
2023/05/28 07:53:02;;;;;;;9.52;3.65;;;;;;;;;;4955593;29;20099;-50
2023/05/28 07:55:28;;;;;;;10.38;4.35;;;;;;;;;;4955474;29;20502;-52
2023/05/28 07:57:58;;;;;;;10.20;4.78;;;;;;;;;;4955464;29;20402;-52
2023/05/28 08:00:27;;;;;;;10.15;4.25;;;;;;;;;;4955288;29;20047;-49
2023/05/28 08:02:54;;;;;;;8.98;4.65;;;;;;;;;;4947726;29;20056;-52
2023/05/28 08:05:20;;;;;;;10.20;4.00;;;;;;;;;;4936434;29;20052;-54
2023/05/28 08:07:47;;;;;;;9.82;4.63;;;;;;;;;;4935981;29;20163;-50
2023/05/28 08:10:14;;;;;;;7.50;4.18;;;;;;;;;;4950457;28;20062;-53
2023/05/28 08:12:41;;;;;;;7.60;3.88;;;;;;;;;;4954575;29;20126;-54
2023/05/28 08:15:09;;;;;;;9.23;4.15;;;;;;;;;;4955070;29;20103;-53
2023/05/28 08:17:38;;;;;;;9.18;4.35;;;;;;;;;;4955511;29;20529;-54
2023/05/28 08:20:06;;;;;;;8.65;4.38;;;;;;;;;;4954650;28;20110;-51
2023/05/28 08:22:33;;;;;;;9.57;4.18;;;;;;;;;;4954831;29;20070;-55
2023/05/28 08:25:01;;;;;;;11.15;4.45;;;;;;;;;;4955045;29;20054;-57
2023/05/28 08:27:27;;;;;;;10.00;4.88;;;;;;;;;;4955288;29;20070;-60
2023/05/28 08:29:54;;;;;;;9.45;4.38;;;;;;;;;;4954524;29;20055;-55
2023/05/28 08:32:22;;;;;;;9.20;4.10;;;;;;;;;;4954763;29;20051;-65
2023/05/28 08:34:50;;;;;;;9.23;4.50;;;;;;;;;;4954653;29;20576;-65
2023/05/28 08:37:17;;;;;;;11.38;5.05;;;;;;;;;;4954484;29;20485;-54
2023/05/28 08:39:44;;;;;;;16.30;5.95;;;;;;;;;;4953768;28;20046;-59
2023/05/28 08:42:11;;;;;;;21.98;9.50;;;;;;;;;;4953729;29;20075;-57
2023/05/28 08:44:38;;;;;;;10.38;5.20;;;;;;;;;;4954843;29;20464;-52
2023/05/28 08:47:05;;;;;;;8.32;4.15;;;;;;;;;;4954663;29;20051;-53
2023/05/28 08:49:33;;;;;;;9.02;4.38;;;;;;;;;;4954593;29;20371;-52
2023/05/28 08:52:03;;;;;;;10.80;5.00;;;;;;;;;;4954163;29;20047;-50
2023/05/28 08:54:31;;;;;;;10.33;4.33;;;;;;;;;;4954238;29;20501;-52
2023/05/28 08:57:00;;;;;;;8.93;3.85;;;;;;;;;;4969668;28;20050;-47
2023/05/28 08:59:27;;;;;;;11.50;4.70;;;;;;;;;;4971069;28;20047;-49
2023/05/28 09:01:55;;;;;;;9.85;4.88;;;;;;;;;;4954523;28;20053;-51
2023/05/28 09:04:22;;;;;;;8.75;4.30;;;;;;;;;;4954067;29;20378;-65
2023/05/28 09:06:51;;;;;;;8.05;3.80;;;;;;;;;;4953706;29;20131;-50
2023/05/28 09:09:19;;;;;;;8.40;3.83;;;;;;;;;;4954123;28;20050;-52
2023/05/28 09:11:47;;;;;;;8.13;3.80;;;;;;;;;;4964547;28;20101;-50
2023/05/28 09:14:15;;;;;;;7.55;3.95;;;;;;;;;;4964587;28;20167;-53
2023/05/28 09:16:43;;;;;;;10.32;4.22;;;;;;;;;;4953608;29;20042;-50
2023/05/28 09:19:11;;;;;;;8.25;3.92;;;;;;;;;;4966644;28;20106;-48
2023/05/28 09:21:38;;;;;;;8.43;3.83;;;;;;;;;;4959470;28;20098;-53
2023/05/28 09:24:05;;;;;;;9.23;4.20;;;;;;;;;;4957148;28;20047;-54
2023/05/28 09:26:34;;;;;;;9.65;3.83;;;;;;;;;;4953062;29;20047;-53
2023/05/28 09:29:02;;;;;;;8.38;4.00;;;;;;;;;;4967684;28;20074;-54
2023/05/28 09:31:32;;;;;;;10.18;3.97;;;;;;;;;;4971980;28;20047;-54
2023/05/28 09:34:01;;;;;;;9.43;4.43;;;;;;;;;;4954071;28;20055;-53
2023/05/28 09:36:29;;;;;;;8.80;4.05;;;;;;;;;;4953095;29;20097;-55
2023/05/28 09:38:56;;;;;;;7.70;3.80;;;;;;;;;;4953521;29;20051;-49
2023/05/28 09:41:25;;;;;;;8.98;3.97;;;;;;;;;;4953511;28;20055;-53
2023/05/28 09:43:58;;;;;;;9.00;3.95;;;;;;;;;;4953543;29;20126;-54
2023/05/28 09:46:30;;;;;;;9.40;3.80;;;;;;;;;;4953747;29;20508;-55
2023/05/28 09:48:57;;;;;;;7.68;3.83;;;;;;;;;;4953300;29;20050;-53
2023/05/28 09:51:28;;;;;;;7.82;3.90;;;;;;;;;;4953449;28;20544;-50
2023/05/28 09:53:57;;;;;;;9.93;4.22;;;;;;;;;;4953474;29;20043;-51
2023/05/28 09:56:29;;;;;;;7.32;3.97;;;;;;;;;;4953587;29;20103;-50
2023/05/28 09:58:58;;;;;;;8.60;3.85;;;;;;;;;;4953483;29;20055;-55
2023/05/28 10:01:28;;;;;;;8.02;4.00;;;;;;;;;;4953506;28;20051;-53
2023/05/28 10:04:02;;;;;;;6.90;3.63;;;;;;;;;;4953579;29;20043;-52
2023/05/28 10:06:30;;;;;;;5.95;3.22;;;;;;;;;;4953298;29;20138;-54
2023/05/28 10:08:59;;;;;;;8.57;3.75;;;;;;;;;;4952969;29;20094;-53
2023/05/28 10:11:28;;;;;;;7.45;3.92;;;;;;;;;;4953164;28;20047;-54
2023/05/28 10:13:57;;;;;;;6.55;3.40;;;;;;;;;;4953704;29;20055;-50
2023/05/28 10:16:25;;;;;;;6.45;3.22;;;;;;;;;;4953474;29;20103;-49
2023/05/28 10:18:52;;;;;;;8.77;4.57;;;;;;;;;;4953165;29;20055;-51
2023/05/28 10:21:20;;;;;;;8.52;3.83;;;;;;;;;;4953238;28;20067;-53
2023/05/28 10:23:48;;;;;;;6.45;3.28;;;;;;;;;;4953417;29;20051;-51
2023/05/28 10:26:15;;;;;;;8.90;4.07;;;;;;;;;;4953435;29;20564;-50
2023/05/28 10:28:43;;;;;;;7.70;4.00;;;;;;;;;;4952883;29;20047;-50
2023/05/28 10:31:11;;;;;;;10.18;3.83;;;;;;;;;;4952937;28;20053;-50
2023/05/28 10:33:39;;;;;;;9.05;3.53;;;;;;;;;;4953150;28;20523;-51
2023/05/28 10:36:10;;;;;;;7.60;3.70;;;;;;;;;;4956432;29;20134;-52
2023/05/28 10:38:43;;;;;;;6.60;3.55;;;;;;;;;;4956680;29;20054;-51
2023/05/28 10:41:10;;;;;;;9.30;3.75;;;;;;;;;;4956842;28;20158;-53
2023/05/28 10:43:45;;;;;;;7.40;4.60;;;;;;;;;;4956930;29;20055;-53
2023/05/28 10:46:16;;;;;;;6.50;3.60;;;;;;;;;;4957018;29;20508;-52
2023/05/28 10:49:08;;;;;;;7.88;3.83;;;;;;;;;;4956424;29;20102;-49
2023/05/28 10:51:56;;;;;;;8.60;3.72;;;;;;;;;;4956570;28;20055;-55
2023/05/28 10:54:24;;;;;;;8.20;3.53;;;;;;;;;;4956604;29;20055;-51
2023/05/28 10:57:08;;;;;;;9.13;4.35;;;;;;;;;;4956629;29;20049;-50
2023/05/28 10:59:39;;;;;;;8.10;3.72;;;;;;;;;;4956566;29;20051;-51
2023/05/28 11:02:08;;;;;;;8.48;3.70;;;;;;;;;;4956547;28;20047;-52
2023/05/28 11:04:36;;;;;;;8.60;3.88;;;;;;;;;;4956653;29;20493;-51
2023/05/28 11:07:02;;;;;;;7.43;3.92;;;;;;;;;;4956189;29;20190;-55
2023/05/28 11:09:30;;;;;;;8.60;4.15;;;;;;;;;;4955991;29;20051;-51
2023/05/28 11:11:59;;;;;;;10.60;5.07;;;;;;;;;;4956391;28;20509;-52
2023/05/28 11:14:30;;;;;;;6.63;3.33;;;;;;;;;;4956326;29;20047;-56
2023/05/28 11:16:57;;;;;;;8.18;4.07;;;;;;;;;;4956643;29;20508;-50
2023/05/28 11:19:25;;;;;;;8.20;3.75;;;;;;;;;;4955829;29;20047;-50
2023/05/28 11:21:52;;;;;;;7.95;4.18;;;;;;;;;;4956187;28;20479;-51
2023/05/28 11:24:19;;;;;;;7.60;4.50;;;;;;;;;;4956063;29;20098;-54
2023/05/28 11:26:46;;;;;;;9.10;3.58;;;;;;;;;;4956158;29;20102;-50
2023/05/28 11:29:14;;;;;;;7.10;3.97;;;;;;;;;;4955607;29;20062;-52
2023/05/28 11:31:41;;;;;;;9.93;4.15;;;;;;;;;;4955904;28;20134;-50
2023/05/28 11:34:08;;;;;;;6.47;3.50;;;;;;;;;;4955651;29;20480;-52
2023/05/28 11:36:43;;;;;;;5.68;3.60;;;;;;;;;;4955697;29;20731;-50
2023/05/28 11:39:10;;;;;;;8.32;3.60;;;;;;;;;;4955529;29;20062;-52
2023/05/28 11:41:36;;;;;;;6.85;3.53;;;;;;;;;;4955704;28;20413;-55
2023/05/28 11:44:03;;;;;;;8.30;4.15;;;;;;;;;;4955707;29;20493;-54
2023/05/28 11:46:31;;;;;;;7.28;3.53;;;;;;;;;;4955408;28;20055;-51
2023/05/28 11:48:58;;;;;;;7.82;4.10;;;;;;;;;;4955391;29;20055;-53
2023/05/28 11:51:25;;;;;;;8.57;4.20;;;;;;;;;;4955559;28;20107;-50
2023/05/28 11:53:53;;;;;;;12.40;4.70;;;;;;;;;;4955863;29;20149;-56
2023/05/28 11:56:20;;;;;;;8.10;3.33;;;;;;;;;;4955604;29;20047;-52
2023/05/28 11:58:48;;;;;;;8.45;3.65;;;;;;;;;;4955351;29;20179;-52
2023/05/28 12:01:15;;;;;;;6.45;3.50;;;;;;;;;;4955452;28;20059;-51
2023/05/28 12:03:42;;;;;;;7.50;3.67;;;;;;;;;;4941075;29;20051;-51
2023/05/28 12:06:10;;;;;;;7.75;4.28;;;;;;;;;;4935949;29;20074;-52
2023/05/28 12:08:39;;;;;;;8.55;4.10;;;;;;;;;;4936196;29;20048;-57
2023/05/28 12:11:09;;;;;;;7.05;3.78;;;;;;;;;;4935945;29;20139;-49
2023/05/28 12:13:36;;;;;;;7.63;3.95;;;;;;;;;;4936249;29;20048;-49
2023/05/28 12:16:07;;;;;;;7.80;3.80;;;;;;;;;;4935726;29;20044;-53
2023/05/28 12:18:34;;;;;;;7.25;4.30;;;;;;;;;;4935654;29;20047;-51
2023/05/28 12:21:01;;;;;;;8.55;3.90;;;;;;;;;;4935586;29;20138;-50
2023/05/28 12:23:28;;;;;;;7.57;3.58;;;;;;;;;;4936017;29;20059;-49
2023/05/28 12:25:55;;;;;;;7.03;4.03;;;;;;;;;;4935975;29;20055;-50
2023/05/28 12:28:24;;;;;;;7.10;3.75;;;;;;;;;;4935572;29;20095;-50
2023/05/28 12:30:52;;;;;;;7.67;4.23;;;;;;;;;;4935684;29;20106;-54
2023/05/28 12:33:20;;;;;;;7.95;4.00;;;;;;;;;;4935837;29;20131;-50
2023/05/28 12:35:48;;;;;;;7.72;3.92;;;;;;;;;;4935381;29;20055;-55
2023/05/28 12:38:15;;;;;;;8.40;4.40;;;;;;;;;;4935662;29;20074;-53
2023/05/28 12:40:42;;;;;;;7.80;3.75;;;;;;;;;;4935136;29;20489;-54
2023/05/28 12:43:09;;;;;;;7.43;3.53;;;;;;;;;;4935546;29;20107;-50
2023/05/28 12:45:37;;;;;;;9.40;4.07;;;;;;;;;;4935720;29;20094;-54
2023/05/28 12:48:04;;;;;;;9.10;4.32;;;;;;;;;;4935328;29;20135;-54
2023/05/28 12:50:31;;;;;;;8.88;4.03;;;;;;;;;;4935139;29;20051;-49
2023/05/28 12:52:58;;;;;;;7.72;3.90;;;;;;;;;;4935219;29;20132;-52
2023/05/28 12:55:24;;;;;;;8.85;4.95;;;;;;;;;;4935516;29;20086;-55
2023/05/28 12:57:52;;;;;;;9.15;5.22;;;;;;;;;;4934783;29;20054;-50
2023/05/28 13:00:19;;;;;;;6.95;4.13;;;;;;;;;;4934849;29;20051;-54
2023/05/28 13:02:47;;;;;;;5.80;3.58;;;;;;;;;;4942007;29;20051;-53
2023/05/28 13:05:15;;;;;;;7.90;4.07;;;;;;;;;;4954220;29;20047;-54
2023/05/28 13:07:41;;;;;;;10.18;4.32;;;;;;;;;;4954345;29;20134;-52
2023/05/28 13:10:09;;;;;;;7.18;3.92;;;;;;;;;;4953747;28;20098;-54
2023/05/28 13:12:37;;;;;;;7.63;4.65;;;;;;;;;;4953894;29;20146;-53
2023/05/28 13:15:05;;;;;;;6.55;3.67;;;;;;;;;;4954212;29;20051;-53
2023/05/28 13:17:32;;;;;;;10.23;4.53;;;;;;;;;;4953963;29;20047;-51
2023/05/28 13:20:01;;;;;;;10.45;3.92;;;;;;;;;;4953866;29;20047;-53
2023/05/28 13:22:27;;;;;;;7.57;4.45;;;;;;;;;;4953849;29;20526;-49
2023/05/28 13:24:54;;;;;;;8.30;4.90;;;;;;;;;;4954093;29;20051;-52
2023/05/28 13:27:21;;;;;;;8.50;4.35;;;;;;;;;;4953925;29;20082;-53
2023/05/28 13:29:51;;;;;;;7.00;3.83;;;;;;;;;;4954011;29;20103;-53
2023/05/28 13:32:17;;;;;;;7.05;4.10;;;;;;;;;;4953363;28;20082;-53
2023/05/28 13:34:45;;;;;;;7.28;4.20;;;;;;;;;;4953844;29;20051;-49
2023/05/28 13:37:13;;;;;;;7.53;4.22;;;;;;;;;;4953428;29;20054;-55
2023/05/28 13:39:40;;;;;;;6.53;3.92;;;;;;;;;;4953414;29;20047;-53
2023/05/28 13:42:08;;;;;;;7.22;4.50;;;;;;;;;;4953499;28;20044;-52
2023/05/28 13:44:35;;;;;;;7.80;4.43;;;;;;;;;;4953993;29;20082;-52
2023/05/28 13:47:02;;;;;;;9.10;4.43;;;;;;;;;;4953473;29;20043;-49
2023/05/28 13:49:29;;;;;;;6.75;4.65;;;;;;;;;;4953295;29;20093;-52
2023/05/28 13:51:56;;;;;;;10.70;4.45;;;;;;;;;;4953475;28;20567;-54
2023/05/28 13:54:24;;;;;;;8.43;4.68;;;;;;;;;;4953785;29;20051;-54
2023/05/28 13:56:51;;;;;;;9.10;4.47;;;;;;;;;;4953515;29;20471;-54
2023/05/28 13:59:18;;;;;;;7.75;4.47;;;;;;;;;;4953470;29;20184;-51
2023/05/28 14:01:45;;;;;;;9.15;5.28;;;;;;;;;;4953450;28;20059;-55
2023/05/28 14:04:11;;;;;;;8.88;5.07;;;;;;;;;;4935385;29;20127;-50
2023/05/28 14:06:38;;;;;;;7.35;4.65;;;;;;;;;;4934454;29;20413;-55
2023/05/28 14:09:05;;;;;;;8.13;5.15;;;;;;;;;;4934220;29;20055;-49
2023/05/28 14:11:33;;;;;;;8.05;4.40;;;;;;;;;;4938303;29;20086;-55
2023/05/28 14:14:00;;;;;;;7.28;4.43;;;;;;;;;;4938516;29;20108;-56
2023/05/28 14:16:27;;;;;;;8.82;5.03;;;;;;;;;;4938230;29;20056;-53
2023/05/28 14:18:54;;;;;;;7.13;4.90;;;;;;;;;;4937969;29;20044;-55
2023/05/28 14:21:21;;;;;;;7.72;4.80;;;;;;;;;;4938097;29;20059;-52
2023/05/28 14:23:47;;;;;;;8.57;5.13;;;;;;;;;;4938149;29;20107;-53
2023/05/28 14:26:14;;;;;;;8.23;5.47;;;;;;;;;;4938281;29;20099;-50
2023/05/28 14:28:42;;;;;;;8.82;5.18;;;;;;;;;;4937864;29;20111;-54
2023/05/28 14:31:09;;;;;;;8.63;4.70;;;;;;;;;;4937944;29;20111;-53
2023/05/28 14:33:36;;;;;;;7.00;4.35;;;;;;;;;;4938154;29;20047;-54
2023/05/28 14:36:02;;;;;;;8.48;5.53;;;;;;;;;;4937936;29;20518;-50
2023/05/28 14:38:29;;;;;;;7.97;4.80;;;;;;;;;;4937680;29;20051;-53
2023/05/28 14:40:56;;;;;;;7.93;5.25;;;;;;;;;;4937839;29;20108;-54
2023/05/28 14:43:23;;;;;;;8.55;4.88;;;;;;;;;;4937991;29;20056;-50